Terminal Aerodrome Forecast
Issued by NWS

Home | Current Version | Previous Version | Graphics & Text | Print | Product List | Glossary On
Versions: 1 2 3 4 5 6 7 8 9 10 11 12 13 14 15 16 17 18 19 20 21
000
FTUS43 KGRB 311100
TAFATW
TAF
KATW 311137Z 3112/0112 21006KT P6SM SCT025 BKN040
      TEMPO 3112/3115 BKN025
     FM311500 27005KT P6SM BKN030 OVC080
     FM311700 36009KT P6SM -SHSN BKN035 OVC080
     FM010200 03011G16KT P6SM SCT025 BKN035
     FM010800 04015G25KT 6SM -SN BKN025=

USA.gov is the U.S. government's official web portal to all federal, state and local government web resources and services.